Time;durP1;ratioP1;P1;durP2;ratioP2;P2;SDS_P1;SDS_P2;PMS_P1;PMS_P2;Temp;Humidity;BMP_temperature;BMP_pressure;BME280_temperature;BME280_humidity;BME280_pressure;Samples;Min_cycle;Max_cycle;Signal;HPM_P1;HPM_P2
2020/12/24 00:00:36;;;;;;;0.40;0.30;;;;;;;11.73;67.92;99131.28;10460316;28;20048;-67
2020/12/24 00:05:37;;;;;;;0.20;0.20;;;;;;;11.65;67.57;99138.75;10460736;28;20045;-67
2020/12/24 00:10:39;;;;;;;0.20;0.20;;;;;;;11.77;66.87;99140.75;10459782;28;20037;-67
2020/12/24 00:15:40;;;;;;;0.85;0.30;;;;;;;11.77;66.72;99153.91;10460142;28;20044;-67
2020/12/24 00:20:52;;;;;;;0.40;0.20;;;;;;;11.59;67.66;99146.00;10442170;28;20076;-68
2020/12/24 00:25:54;;;;;;;0.65;0.40;;;;;;;11.66;66.75;99125.50;10459818;28;20402;-67
2020/12/24 00:30:55;;;;;;;0.57;0.30;;;;;;;11.55;67.21;99127.81;10459609;28;20044;-68
2020/12/24 00:35:56;;;;;;;0.75;0.30;;;;;;;11.55;66.79;99133.06;10459554;28;20095;-67
2020/12/24 00:40:57;;;;;;;0.35;0.28;;;;;;;11.40;67.15;99123.31;10459393;28;20072;-67
2020/12/24 00:45:58;;;;;;;0.60;0.40;;;;;;;11.38;67.07;99120.78;10458828;28;20049;-68
2020/12/24 00:51:10;;;;;;;0.30;0.20;;;;;;;11.57;65.66;99084.72;10458458;28;20041;-67
2020/12/24 00:56:13;;;;;;;1.75;0.40;;;;;;;11.45;66.72;99095.00;10441374;28;20073;-67
2020/12/24 01:01:26;;;;;;;0.22;0.22;;;;;;;11.33;66.81;99104.34;10441166;28;20095;-67
2020/12/24 01:06:28;;;;;;;0.20;0.20;;;;;;;11.25;67.50;99077.59;10457990;28;20068;-67
2020/12/24 01:11:30;;;;;;;1.08;0.35;;;;;;;11.18;67.24;99073.56;10457931;28;20052;-67
2020/12/24 01:16:31;;;;;;;0.50;0.20;;;;;;;11.20;67.22;99084.84;10461944;22;20049;-64
2020/12/24 01:21:33;;;;;;;1.67;0.30;;;;;;;11.14;67.01;99093.03;10456463;28;20053;-64
2020/12/24 01:26:34;;;;;;;1.10;0.30;;;;;;;11.30;66.36;99104.53;10456181;28;20053;-64
2020/12/24 01:31:35;;;;;;;0.43;0.20;;;;;;;11.23;66.48;99100.47;10457434;28;20049;-64
2020/12/24 01:36:36;;;;;;;0.30;0.30;;;;;;;11.23;66.27;99096.06;10456170;28;20073;-64
2020/12/24 01:41:38;;;;;;;1.33;0.30;;;;;;;11.21;66.40;99092.66;10438370;28;20063;-64
2020/12/24 01:46:39;;;;;;;0.98;0.30;;;;;;;11.27;66.14;99073.94;10456908;28;20048;-64
2020/12/24 01:51:52;;;;;;;0.20;0.20;;;;;;;11.18;66.31;99092.81;10455876;28;20470;-64
2020/12/24 01:56:54;;;;;;;0.50;0.32;;;;;;;11.12;66.33;99103.66;10455950;28;20544;-64
2020/12/24 02:01:57;;;;;;;1.55;0.38;;;;;;;11.24;65.95;99084.59;10456518;28;20136;-64
2020/12/24 02:06:58;;;;;;;1.42;0.30;;;;;;;11.25;65.93;99074.97;10455326;28;20106;-64
2020/12/24 02:11:59;;;;;;;0.93;0.28;;;;;;;11.17;66.06;99059.56;10456510;28;20418;-63
2020/12/24 02:17:00;;;;;;;0.43;0.30;;;;;;;11.21;65.77;99055.84;10455359;28;20083;-64
2020/12/24 02:22:10;;;;;;;1.77;0.50;;;;;;;11.16;65.76;99078.06;10459814;28;20041;-64
2020/12/24 02:27:12;;;;;;;1.17;0.40;;;;;;;11.17;65.71;99063.97;10463342;28;20148;-64
2020/12/24 02:32:13;;;;;;;0.60;0.30;;;;;;;11.04;65.92;99053.19;10463043;28;20045;-64
2020/12/24 02:37:14;;;;;;;0.60;0.35;;;;;;;11.06;66.27;99057.44;10462724;28;20119;-63
2020/12/24 02:42:16;;;;;;;0.55;0.30;;;;;;;11.05;65.93;99036.47;10463201;28;20048;-64
2020/12/24 02:47:17;;;;;;;0.73;0.30;;;;;;;11.07;65.64;99037.28;10462503;28;20032;-63
2020/12/24 02:52:30;;;;;;;0.95;0.50;;;;;;;11.05;65.73;99053.09;10462885;28;20064;-64
2020/12/24 02:57:32;;;;;;;0.47;0.40;;;;;;;11.14;65.70;99035.19;10452538;28;20502;-63
2020/12/24 03:02:38;;;;;;;0.20;0.20;;;;;;;11.01;65.68;99019.16;10462120;28;20541;-63
2020/12/24 03:07:40;;;;;;;0.38;0.35;;;;;;;11.09;65.35;99027.50;10443940;28;20072;-63
2020/12/24 03:12:41;;;;;;;0.32;0.32;;;;;;;11.08;65.34;99023.19;10461229;28;20036;-63
2020/12/24 03:17:42;;;;;;;1.70;0.40;;;;;;;11.03;65.41;99020.78;10461654;28;20045;-63
2020/12/24 03:22:50;;;;;;;0.55;0.40;;;;;;;11.11;65.05;99004.59;10444268;28;20044;-63
2020/12/24 03:27:51;;;;;;;1.55;0.47;;;;;;;10.95;65.63;99012.44;10460806;28;20049;-65
2020/12/24 03:32:52;;;;;;;0.40;0.40;;;;;;;10.88;65.60;99026.78;10460158;28;20048;-64
2020/12/24 03:37:54;;;;;;;0.85;0.45;;;;;;;10.97;64.99;99034.22;10460916;28;20079;-65
2020/12/24 03:42:55;;;;;;;1.00;0.40;;;;;;;10.93;65.54;99032.66;10459892;28;20053;-64
2020/12/24 03:47:56;;;;;;;0.95;0.40;;;;;;;10.88;65.06;99026.78;10459990;28;20044;-64
2020/12/24 03:53:09;;;;;;;0.70;0.60;;;;;;;10.92;65.27;98996.78;10460924;28;20041;-63
2020/12/24 03:58:11;;;;;;;1.52;0.40;;;;;;;11.01;64.95;98996.34;10459884;28;20037;-65
2020/12/24 04:03:12;;;;;;;1.08;0.40;;;;;;;10.93;65.25;99013.41;10459414;28;20045;-65
2020/12/24 04:08:13;;;;;;;0.55;0.40;;;;;;;11.02;64.74;99026.97;10459594;28;20037;-63
2020/12/24 04:13:15;;;;;;;2.25;0.50;;;;;;;11.00;64.88;99031.44;10458991;28;20053;-64
2020/12/24 04:18:16;;;;;;;0.60;0.40;;;;;;;11.17;64.38;99019.25;10458979;28;20467;-63
2020/12/24 04:23:30;;;;;;;2.35;0.35;;;;;;;11.26;63.91;99018.78;10459393;28;20044;-62
2020/12/24 04:28:31;;;;;;;0.70;0.30;;;;;;;11.18;63.73;99011.28;10459132;28;20041;-64
2020/12/24 04:33:33;;;;;;;1.50;0.32;;;;;;;11.08;64.07;99012.66;10458808;28;20068;-64
2020/12/24 04:38:34;;;;;;;0.40;0.40;;;;;;;11.07;64.42;98993.41;10439961;28;20045;-64
2020/12/24 04:43:37;;;;;;;2.15;0.52;;;;;;;10.98;63.80;98988.63;10457817;28;20078;-65
2020/12/24 04:48:40;;;;;;;1.27;0.40;;;;;;;11.14;63.90;99003.63;10458296;28;20033;-64
2020/12/24 04:53:51;;;;;;;0.65;0.30;;;;;;;10.98;64.23;98982.47;10458075;28;20045;-64
2020/12/24 04:58:57;;;;;;;1.40;0.52;;;;;;;11.04;63.60;98953.25;10457647;28;20037;-64
2020/12/24 05:03:58;;;;;;;0.20;0.20;;;;;;;11.21;63.16;98962.94;10440621;28;20071;-65
2020/12/24 05:09:00;;;;;;;0.90;0.50;;;;;;;11.03;63.85;98983.97;10457494;28;20045;-65
2020/12/24 05:14:20;;;;;;;0.60;0.30;;;;;;;11.09;62.76;99007.31;10457200;28;20041;-64
2020/12/24 05:19:22;;;;;;;0.55;0.30;;;;;;;10.99;62.62;99003.47;10457006;28;20055;-64
2020/12/24 05:24:27;;;;;;;0.50;0.38;;;;;;;11.05;61.18;99005.78;10456339;28;20045;-64
2020/12/24 05:29:28;;;;;;;0.70;0.38;;;;;;;10.96;60.62;99022.00;10456447;28;20446;-64
2020/12/24 05:34:29;;;;;;;0.90;0.40;;;;;;;10.76;61.14;99009.84;10456390;28;20186;-64
2020/12/24 05:39:30;;;;;;;1.00;0.40;;;;;;;10.85;60.60;99009.41;10456280;28;20446;-66
2020/12/24 05:44:32;;;;;;;0.82;0.40;;;;;;;10.72;60.28;99024.06;10455934;28;20055;-65
2020/12/24 05:49:35;;;;;;;2.03;0.55;;;;;;;10.58;60.58;99019.47;10455350;28;20051;-64
2020/12/24 05:54:36;;;;;;;1.23;0.52;;;;;;;10.67;60.19;99022.56;10455572;28;20072;-64
2020/12/24 05:59:38;;;;;;;1.73;0.50;;;;;;;10.62;61.11;99022.78;10464375;28;20041;-64
2020/12/24 06:04:45;;;;;;;0.50;0.30;;;;;;;10.51;58.26;99031.19;10463981;28;20095;-64
2020/12/24 06:09:50;;;;;;;0.98;0.30;;;;;;;10.40;58.38;99049.22;10464041;28;20106;-64
2020/12/24 06:14:54;;;;;;;2.55;0.45;;;;;;;10.12;60.10;99078.50;10463598;28;20041;-64
2020/12/24 06:19:55;;;;;;;1.20;0.50;;;;;;;9.49;63.42;99091.78;10463180;28;20106;-62
2020/12/24 06:24:58;;;;;;;1.23;0.50;;;;;;;9.00;63.79;99067.59;10463895;28;20041;-64
2020/12/24 06:30:07;;;;;;;1.90;0.60;;;;;;;8.83;63.59;99049.06;10445051;28;20413;-64
2020/12/24 06:35:31;;;;;;;3.05;0.43;;;;;;;8.71;61.77;99065.28;10463677;28;20072;-65
2020/12/24 06:40:38;;;;;;;1.45;0.35;;;;;;;8.70;61.08;99080.13;10462792;28;20041;-64
2020/12/24 06:45:40;;;;;;;2.13;0.40;;;;;;;8.54;61.85;99082.53;10462201;28;20045;-64
2020/12/24 06:50:43;;;;;;;1.33;0.50;;;;;;;8.45;60.84;99082.84;10462142;28;20510;-65
2020/12/24 06:55:44;;;;;;;1.13;0.57;;;;;;;8.39;60.63;99080.47;10462041;28;20049;-65
2020/12/24 07:01:01;;;;;;;2.90;0.50;;;;;;;8.20;60.75;99074.19;10460796;28;20080;-65
2020/12/24 07:06:02;;;;;;;1.33;0.50;;;;;;;7.99;62.08;99066.22;10460712;28;20091;-65
2020/12/24 07:11:04;;;;;;;3.03;0.50;;;;;;;7.74;62.94;99049.69;10460564;28;20052;-65
2020/12/24 07:16:10;;;;;;;1.73;0.50;;;;;;;7.78;62.70;99072.22;10461531;28;20037;-64
2020/12/24 07:21:11;;;;;;;2.22;0.57;;;;;;;7.75;62.34;99072.34;10545015;22;20370;-64
2020/12/24 07:26:13;;;;;;;3.38;0.77;;;;;;;7.53;63.06;99061.78;10549357;28;20129;-63
2020/12/24 07:31:15;;;;;;;1.88;0.98;;;;;;;7.62;62.54;99073.69;10548666;28;20108;-64
2020/12/24 07:36:16;;;;;;;2.10;0.50;;;;;;;7.51;62.96;99082.75;10530116;28;20040;-64
2020/12/24 07:41:18;;;;;;;1.58;0.43;;;;;;;7.44;63.15;99094.34;10548397;28;20043;-64
2020/12/24 07:46:22;;;;;;;3.70;0.73;;;;;;;7.49;62.93;99100.25;10549876;28;20040;-64
2020/12/24 07:51:24;;;;;;;1.85;0.70;;;;;;;7.56;62.73;99091.28;10548420;28;20403;-64
2020/12/24 07:56:28;;;;;;;2.60;0.68;;;;;;;7.53;63.27;99091.41;10547467;28;20032;-63
2020/12/24 08:01:30;;;;;;;2.33;0.75;;;;;;;7.27;64.48;99101.91;10511830;28;20048;-65
2020/12/24 08:06:33;;;;;;;1.50;0.70;;;;;;;7.39;64.28;99098.84;10528525;28;20409;-64
2020/12/24 08:11:35;;;;;;;2.00;0.43;;;;;;;7.46;63.98;99097.75;10546269;28;20044;-64
2020/12/24 08:16:40;;;;;;;2.08;0.60;;;;;;;7.48;63.23;99097.69;10547645;28;20039;-64
2020/12/24 08:22:05;;;;;;;3.35;0.77;;;;;;;7.56;63.20;99088.66;10546790;28;20558;-63
2020/12/24 08:27:07;;;;;;;2.25;1.20;;;;;;;7.59;62.36;99080.72;10527281;28;20077;-64
2020/12/24 08:32:08;;;;;;;2.30;0.90;;;;;;;7.72;61.73;99067.22;10527140;28;20398;-64
2020/12/24 08:37:10;;;;;;;2.97;0.85;;;;;;;7.86;61.03;99056.25;10545874;28;20063;-64
2020/12/24 08:42:17;;;;;;;3.38;1.20;;;;;;;7.92;60.13;99062.09;10545961;28;20404;-64
2020/12/24 08:47:18;;;;;;;3.97;0.90;;;;;;;8.00;59.43;99064.44;10527098;28;20048;-64
2020/12/24 08:52:23;;;;;;;2.60;0.70;;;;;;;8.10;58.08;99063.19;10545956;28;20455;-64
2020/12/24 08:57:24;;;;;;;4.43;0.70;;;;;;;8.22;57.97;99060.13;10525403;28;20063;-64
2020/12/24 09:02:33;;;;;;;3.17;0.77;;;;;;;8.29;57.55;99059.00;10543928;28;20043;-64
2020/12/24 09:07:42;;;;;;;3.35;0.90;;;;;;;8.34;56.54;99057.06;10543939;28;20044;-65
2020/12/24 09:12:44;;;;;;;4.38;0.90;;;;;;;8.49;55.55;99050.38;10524692;28;20075;-65
2020/12/24 09:17:50;;;;;;;3.28;1.00;;;;;;;8.59;55.55;99036.03;10542356;28;20040;-65
2020/12/24 09:22:58;;;;;;;4.20;1.00;;;;;;;8.57;56.05;99035.22;10543262;28;20044;-64
2020/12/24 09:28:03;;;;;;;3.08;1.10;;;;;;;8.91;54.37;99025.19;10543162;28;20384;-65
2020/12/24 09:33:05;;;;;;;2.65;0.90;;;;;;;8.94;54.99;99015.44;10542041;28;20115;-64
2020/12/24 09:38:06;;;;;;;6.03;0.93;;;;;;;9.17;53.88;99005.75;10524601;28;20130;-64
2020/12/24 09:43:08;;;;;;;3.53;0.70;;;;;;;9.31;53.80;99003.38;10541621;28;20413;-65
2020/12/24 09:48:09;;;;;;;4.70;0.90;;;;;;;9.45;53.78;98989.66;10525861;28;20041;-65
2020/12/24 09:53:10;;;;;;;4.35;0.95;;;;;;;9.45;53.52;99006.25;10541977;28;20048;-65
2020/12/24 09:58:11;;;;;;;2.78;0.95;;;;;;;9.29;53.93;99013.91;10541671;28;20066;-64
2020/12/24 10:03:12;;;;;;;4.10;0.80;;;;;;;9.22;54.35;99020.34;10542177;28;20039;-64
2020/12/24 10:08:14;;;;;;;1.92;0.90;;;;;;;9.19;55.03;99014.38;10541901;28;20032;-64
2020/12/24 10:13:15;;;;;;;4.45;0.95;;;;;;;8.99;55.71;99023.94;10542824;28;20067;-65
2020/12/24 10:18:16;;;;;;;4.28;0.90;;;;;;;9.22;55.59;99011.63;10541854;28;20036;-65
2020/12/24 10:23:18;;;;;;;4.20;1.00;;;;;;;9.02;55.36;99000.22;10537880;28;20402;-64
2020/12/24 10:28:19;;;;;;;2.58;0.90;;;;;;;9.05;55.34;98994.84;10520823;28;20422;-64
2020/12/24 10:33:20;;;;;;;3.58;0.90;;;;;;;8.95;55.60;98979.59;10541008;28;20105;-64
2020/12/24 10:38:21;;;;;;;3.08;0.77;;;;;;;8.96;56.42;98984.75;10540817;28;20040;-64
2020/12/24 10:43:23;;;;;;;2.42;1.05;;;;;;;9.07;56.08;98965.94;10544774;28;20036;-65
2020/12/24 10:48:24;;;;;;;2.15;0.80;;;;;;;9.09;56.49;98957.09;10549425;28;20040;-65
2020/12/24 10:53:25;;;;;;;4.22;0.75;;;;;;;9.07;56.70;98947.59;10548903;28;20043;-65
2020/12/24 10:58:26;;;;;;;2.65;0.75;;;;;;;9.08;56.49;98944.91;10548527;28;20074;-65
2020/12/24 11:03:29;;;;;;;2.35;0.80;;;;;;;9.07;56.48;98942.34;10547097;28;20036;-65
2020/12/24 11:08:31;;;;;;;3.05;0.70;;;;;;;9.18;57.04;98955.00;10548672;28;20082;-64
2020/12/24 11:13:32;;;;;;;1.88;0.50;;;;;;;10.30;54.53;98938.50;10550198;28;20048;-64
2020/12/24 11:18:34;;;;;;;2.92;0.50;;;;;;;11.48;51.35;98927.28;10550403;28;20032;-64
2020/12/24 11:23:35;;;;;;;1.50;0.60;;;;;;;11.48;50.77;98908.00;10532731;28;20044;-64
2020/12/24 11:28:37;;;;;;;2.25;0.60;;;;;;;11.03;52.51;98912.13;10551390;28;20067;-65
2020/12/24 11:33:41;;;;;;;1.65;0.40;;;;;;;12.37;49.70;98903.97;10552837;28;20040;-65
2020/12/24 11:38:42;;;;;;;2.83;0.57;;;;;;;12.29;49.75;98900.94;10550119;28;20082;-65
2020/12/24 11:43:44;;;;;;;0.80;0.50;;;;;;;11.84;50.40;98894.66;10551544;28;20101;-65
2020/12/24 11:48:47;;;;;;;2.05;0.52;;;;;;;11.92;50.70;98887.19;10554521;28;20047;-64
2020/12/24 11:53:49;;;;;;;1.00;0.30;;;;;;;11.34;51.71;98892.97;10550764;28;20056;-65
2020/12/24 11:58:52;;;;;;;1.25;0.30;;;;;;;10.42;54.05;98881.91;10529540;28;20386;-65
2020/12/24 12:03:53;;;;;;;0.60;0.25;;;;;;;9.78;56.01;98867.44;10533719;28;20048;-65
2020/12/24 12:08:55;;;;;;;0.70;0.30;;;;;;;9.50;57.57;98901.97;10549603;28;20535;-65
2020/12/24 12:13:56;;;;;;;0.75;0.30;;;;;;;9.39;57.00;98891.13;10531251;28;20048;-65
2020/12/24 12:18:58;;;;;;;1.15;0.30;;;;;;;10.19;55.30;98892.66;10546855;28;20105;-65
2020/12/24 12:23:59;;;;;;;0.38;0.15;;;;;;;10.31;54.90;98889.44;10544864;28;20054;-65
2020/12/24 12:29:01;;;;;;;0.90;0.30;;;;;;;9.77;56.03;98893.75;10546234;28;20097;-66
2020/12/24 12:34:02;;;;;;;0.65;0.32;;;;;;;9.42;57.66;98900.59;10543875;28;20050;-65
2020/12/24 12:39:03;;;;;;;0.57;0.25;;;;;;;8.93;58.58;98897.53;10546174;28;20118;-65
2020/12/24 12:44:05;;;;;;;0.70;0.20;;;;;;;8.65;59.51;98892.63;10546449;28;20048;-65
2020/12/24 12:49:07;;;;;;;1.77;0.38;;;;;;;8.55;60.13;98900.88;10545690;28;20107;-65
2020/12/24 12:54:08;;;;;;;0.95;0.30;;;;;;;8.47;60.75;98892.47;10544482;28;20077;-64
2020/12/24 12:59:10;;;;;;;1.17;0.30;;;;;;;8.60;60.34;98903.28;10510498;28;20050;-65
2020/12/24 13:04:11;;;;;;;0.95;0.43;;;;;;;8.57;60.20;98895.56;10543147;28;20062;-64
2020/12/24 13:09:13;;;;;;;1.33;0.32;;;;;;;8.57;60.79;98891.16;10542889;28;20040;-64
2020/12/24 13:14:22;;;;;;;1.52;0.40;;;;;;;8.53;60.42;98881.72;10543664;28;20040;-65
2020/12/24 13:19:23;;;;;;;1.08;0.32;;;;;;;8.40;60.40;98877.06;10553787;22;20051;-66
2020/12/24 13:24:24;;;;;;;0.20;0.20;;;;;;;8.28;60.39;98862.72;10540393;28;20071;-65
2020/12/24 13:29:25;;;;;;;0.45;0.22;;;;;;;8.27;60.44;98858.34;10539365;28;20082;-65
2020/12/24 13:34:26;;;;;;;0.70;0.40;;;;;;;8.37;59.68;98862.34;10538713;28;20097;-65
2020/12/24 13:39:28;;;;;;;1.35;0.30;;;;;;;8.37;59.03;98856.25;10538934;28;20036;-64
2020/12/24 13:44:29;;;;;;;0.50;0.20;;;;;;;8.35;58.74;98858.91;10539097;28;20075;-67
2020/12/24 13:49:30;;;;;;;1.25;0.30;;;;;;;8.28;58.31;98863.56;10538934;28;20047;-66
2020/12/24 13:54:31;;;;;;;0.32;0.20;;;;;;;8.29;58.67;98870.47;10539092;28;20105;-65
2020/12/24 13:59:42;;;;;;;0.93;0.38;;;;;;;7.54;62.32;98949.28;10538095;28;20040;-64
2020/12/24 14:04:44;;;;;;;0.60;0.30;;;;;;;6.51;67.19;98966.81;10537873;28;20082;-64
2020/12/24 14:09:45;;;;;;;0.80;0.60;;;;;;;5.93;67.89;98989.47;10538208;28;20071;-65
2020/12/24 14:14:46;;;;;;;0.77;0.77;;;;;;;5.29;69.26;99000.78;10538265;28;20157;-64
2020/12/24 14:19:48;;;;;;;2.65;1.20;;;;;;;4.90;69.10;99017.44;10545372;28;20127;-65
2020/12/24 14:24:49;;;;;;;1.70;1.60;;;;;;;4.73;70.12;99036.06;10546806;28;20075;-66
2020/12/24 14:30:01;;;;;;;1.77;0.90;;;;;;;4.53;70.01;99053.03;10546023;28;20119;-64
2020/12/24 14:35:03;;;;;;;0.80;0.80;;;;;;;3.97;70.07;99070.72;10545875;28;20040;-64
2020/12/24 14:40:04;;;;;;;2.65;2.45;;;;;;;3.77;70.52;99073.72;10544329;28;20494;-63
2020/12/24 14:45:05;;;;;;;1.75;1.65;;;;;;;3.56;71.63;99076.72;10544316;28;20131;-64
2020/12/24 14:50:07;;;;;;;2.80;2.60;;;;;;;3.53;72.03;99089.78;10544432;28;20060;-64
2020/12/24 14:55:09;;;;;;;2.75;2.13;;;;;;;3.48;71.64;99094.19;10544934;28;20044;-63
2020/12/24 15:00:21;;;;;;;2.50;2.13;;;;;;;3.59;71.32;99101.81;10526991;28;20048;-65
2020/12/24 15:05:22;;;;;;;2.00;1.90;;;;;;;3.40;71.03;99128.09;10545085;28;20048;-64
2020/12/24 15:10:23;;;;;;;3.78;3.30;;;;;;;3.42;71.11;99133.28;10545446;28;20044;-64
2020/12/24 15:15:24;;;;;;;2.50;2.33;;;;;;;3.37;72.15;99156.75;10544494;28;20455;-64
2020/12/24 15:20:27;;;;;;;4.80;4.40;;;;;;;3.21;72.27;99160.47;10526420;28;20060;-64
2020/12/24 15:25:28;;;;;;;3.67;3.38;;;;;;;3.21;71.72;99171.72;10544010;28;20058;-65
2020/12/24 15:30:40;;;;;;;2.78;2.58;;;;;;;3.17;72.32;99180.44;10541011;28;20044;-63
2020/12/24 15:35:43;;;;;;;4.10;3.55;;;;;;;3.19;71.84;99193.41;10543440;28;20036;-63
2020/12/24 15:40:44;;;;;;;2.78;2.58;;;;;;;3.32;71.43;99200.13;10543406;28;20040;-64
2020/12/24 15:45:45;;;;;;;2.70;2.50;;;;;;;3.28;72.19;99201.91;10544023;28;20085;-64
2020/12/24 15:50:47;;;;;;;2.60;2.30;;;;;;;3.40;71.49;99211.22;10543706;28;20123;-65
2020/12/24 15:55:48;;;;;;;8.38;7.65;;;;;;;3.49;71.21;99221.47;10542993;28;20040;-64
2020/12/24 16:00:58;;;;;;;1.75;1.65;;;;;;;3.45;71.19;99217.25;10543312;28;20043;-64
2020/12/24 16:06:00;;;;;;;2.03;1.90;;;;;;;3.43;70.86;99229.38;10542693;28;20051;-65
2020/12/24 16:11:02;;;;;;;1.90;1.80;;;;;;;3.56;71.09;99244.78;10542208;28;20164;-65
2020/12/24 16:16:04;;;;;;;1.65;1.55;;;;;;;3.46;71.04;99249.28;10542006;28;20054;-65
2020/12/24 16:21:06;;;;;;;1.10;1.10;;;;;;;3.49;71.11;99264.78;10541810;28;20113;-65
2020/12/24 16:26:08;;;;;;;1.25;1.15;;;;;;;3.54;71.06;99263.88;10541978;28;20044;-64
2020/12/24 16:31:19;;;;;;;1.00;1.00;;;;;;;3.57;70.28;99273.34;10526093;28;20040;-66
2020/12/24 16:36:22;;;;;;;1.00;1.00;;;;;;;3.49;69.87;99286.44;10541654;28;20068;-64
2020/12/24 16:41:23;;;;;;;1.30;0.90;;;;;;;3.51;70.67;99291.63;10541357;28;20048;-64
2020/12/24 16:46:24;;;;;;;1.30;1.20;;;;;;;3.39;71.17;99294.41;10541723;28;20072;-65
2020/12/24 16:51:28;;;;;;;9.48;1.00;;;;;;;3.36;71.36;99310.88;10540759;28;20093;-64
2020/12/24 16:56:30;;;;;;;0.98;0.95;;;;;;;3.40;71.23;99335.94;10540769;28;20111;-64
2020/12/24 17:01:36;;;;;;;1.20;1.10;;;;;;;3.50;71.90;99336.69;10541435;28;20105;-64
2020/12/24 17:06:38;;;;;;;1.00;0.90;;;;;;;3.48;71.97;99331.50;10541084;28;20051;-65
2020/12/24 17:11:39;;;;;;;1.88;1.08;;;;;;;3.51;72.07;99336.66;10541349;28;20127;-64
2020/12/24 17:16:40;;;;;;;1.48;1.38;;;;;;;3.40;72.29;99342.88;10540563;28;20093;-64
2020/12/24 17:21:41;;;;;;;1.42;1.33;;;;;;;3.39;72.72;99344.63;10540559;28;20036;-63
2020/12/24 17:26:43;;;;;;;1.38;1.30;;;;;;;3.53;72.38;99360.88;10540255;28;20040;-63
2020/12/24 17:31:53;;;;;;;1.60;1.50;;;;;;;3.57;72.13;99360.84;10539852;28;20455;-63
2020/12/24 17:36:55;;;;;;;4.28;2.00;;;;;;;3.55;72.11;99381.66;10539868;28;20036;-63
2020/12/24 17:41:59;;;;;;;2.08;1.90;;;;;;;3.49;72.83;99390.38;10539614;28;20090;-64
2020/12/24 17:47:00;;;;;;;1.83;1.73;;;;;;;3.70;72.32;99391.81;10539490;28;20067;-64
2020/12/24 17:52:01;;;;;;;2.00;1.90;;;;;;;3.69;72.51;99402.25;10538184;28;20040;-64
2020/12/24 17:57:02;;;;;;;2.33;2.15;;;;;;;3.65;72.54;99416.16;10537345;28;20067;-65
2020/12/24 18:02:12;;;;;;;2.25;2.15;;;;;;;3.54;72.83;99419.78;10538489;28;20493;-65
2020/12/24 18:07:13;;;;;;;2.88;2.67;;;;;;;3.41;73.98;99428.59;10539826;28;20450;-65
2020/12/24 18:12:15;;;;;;;2.78;2.58;;;;;;;3.59;73.37;99422.31;10538425;28;20044;-64
2020/12/24 18:17:16;;;;;;;2.65;2.55;;;;;;;3.49;72.98;99421.53;10538310;28;20044;-65
2020/12/24 18:22:17;;;;;;;3.30;3.10;;;;;;;3.51;72.86;99438.00;10539012;28;20489;-65
2020/12/24 18:27:18;;;;;;;3.38;3.17;;;;;;;3.49;72.99;99446.69;10520591;28;20048;-64
2020/12/24 18:32:33;;;;;;;3.30;3.10;;;;;;;3.56;72.88;99455.28;10539309;28;20040;-63
2020/12/24 18:37:34;;;;;;;3.40;3.20;;;;;;;3.50;73.40;99458.81;10519557;28;20386;-64
2020/12/24 18:42:36;;;;;;;3.72;3.53;;;;;;;3.60;72.90;99464.75;10537290;28;20090;-64
2020/12/24 18:47:38;;;;;;;3.50;3.30;;;;;;;3.65;72.35;99465.53;10537507;28;20044;-64
2020/12/24 18:52:41;;;;;;;4.40;4.10;;;;;;;3.63;72.93;99465.56;10537527;28;20098;-65
2020/12/24 18:57:42;;;;;;;4.22;3.92;;;;;;;3.59;72.94;99466.50;10537535;28;20044;-64
2020/12/24 19:02:49;;;;;;;6.18;4.18;;;;;;;3.52;73.13;99468.28;10540007;28;20044;-64
2020/12/24 19:07:51;;;;;;;4.28;3.97;;;;;;;3.51;73.67;99474.38;10527056;28;20463;-66
2020/12/24 19:12:52;;;;;;;4.60;4.20;;;;;;;3.60;73.17;99477.75;10545229;28;20378;-65
2020/12/24 19:17:53;;;;;;;3.70;3.50;;;;;;;3.59;73.17;99478.63;10543168;28;20070;-65
2020/12/24 19:22:55;;;;;;;4.28;3.97;;;;;;;3.72;73.02;99480.19;10544534;28;20048;-64
2020/12/24 19:27:56;;;;;;;4.30;3.90;;;;;;;3.60;72.95;99482.94;10544696;28;20354;-64
2020/12/24 19:33:10;;;;;;;5.20;4.80;;;;;;;3.64;73.22;99489.81;10544158;28;20123;-64
2020/12/24 19:38:11;;;;;;;8.88;4.82;;;;;;;3.77;72.64;99488.78;10545516;28;20040;-66
2020/12/24 19:43:13;;;;;;;5.47;5.10;;;;;;;3.69;72.76;99495.81;10543357;28;20044;-64
2020/12/24 19:48:14;;;;;;;4.70;4.40;;;;;;;3.72;72.49;99501.84;10543071;28;20516;-64
2020/12/24 19:53:15;;;;;;;5.10;4.70;;;;;;;3.82;72.52;99502.59;10542865;28;20070;-64
2020/12/24 19:58:18;;;;;;;5.93;5.50;;;;;;;3.73;72.81;99511.34;10542832;28;20040;-65
2020/12/24 20:03:28;;;;;;;6.05;5.63;;;;;;;3.84;72.67;99519.00;10543535;28;20047;-64
2020/12/24 20:08:29;;;;;;;7.28;6.78;;;;;;;3.93;72.28;99521.50;10542334;28;20076;-64
2020/12/24 20:13:32;;;;;;;7.20;6.70;;;;;;;3.71;72.62;99523.50;10541457;28;20490;-64
2020/12/24 20:18:34;;;;;;;7.22;6.72;;;;;;;3.75;73.01;99517.38;10543340;28;20047;-63
2020/12/24 20:23:35;;;;;;;6.78;6.28;;;;;;;3.77;72.75;99504.38;10542352;28;20082;-64
2020/12/24 20:28:37;;;;;;;7.00;6.50;;;;;;;3.74;72.36;99517.41;10524572;28;20082;-64
2020/12/24 20:33:48;;;;;;;8.63;7.93;;;;;;;3.73;72.61;99524.34;10542265;28;20448;-63
2020/12/24 20:38:50;;;;;;;7.85;7.25;;;;;;;3.79;72.54;99528.59;10541362;28;20040;-64
2020/12/24 20:43:53;;;;;;;7.80;7.30;;;;;;;3.72;72.60;99527.84;10541318;28;20046;-64
2020/12/24 20:48:54;;;;;;;8.98;8.38;;;;;;;3.93;72.20;99524.09;10541091;28;20114;-64
2020/12/24 20:53:55;;;;;;;9.32;8.63;;;;;;;4.05;72.07;99541.28;10541651;28;20097;-64
2020/12/24 20:58:58;;;;;;;10.15;9.35;;;;;;;3.78;72.42;99537.28;10540944;28;20377;-64
2020/12/24 21:04:11;;;;;;;10.38;9.68;;;;;;;3.84;72.32;99541.56;10540409;28;20066;-64
2020/12/24 21:09:12;;;;;;;9.57;8.98;;;;;;;3.86;72.31;99545.00;10539661;28;20036;-64
2020/12/24 21:14:14;;;;;;;10.80;9.75;;;;;;;3.80;72.50;99540.72;10540186;28;20062;-63
2020/12/24 21:19:16;;;;;;;11.45;10.45;;;;;;;3.78;72.89;99543.34;10540008;28;20044;-64
2020/12/24 21:24:17;;;;;;;11.82;10.98;;;;;;;3.85;72.47;99541.56;10521677;28;20044;-64
2020/12/24 21:29:19;;;;;;;12.73;11.70;;;;;;;3.82;72.28;99546.78;10538505;28;20040;-64
2020/12/24 21:34:30;;;;;;;11.98;11.02;;;;;;;3.94;72.17;99548.34;10523116;28;20055;-64
2020/12/24 21:39:31;;;;;;;10.93;10.07;;;;;;;3.95;71.83;99558.75;10539342;28;20059;-64
2020/12/24 21:44:32;;;;;;;10.43;9.63;;;;;;;3.83;72.51;99565.84;10539797;28;20044;-64
2020/12/24 21:49:34;;;;;;;10.63;9.85;;;;;;;3.85;72.46;99564.94;10539017;28;20430;-64
2020/12/24 21:54:35;;;;;;;11.95;11.02;;;;;;;4.02;72.13;99569.91;10539009;28;20055;-64
2020/12/24 21:59:36;;;;;;;11.13;10.40;;;;;;;3.74;72.75;99572.00;10538539;28;20078;-63
2020/12/24 22:04:48;;;;;;;12.10;11.02;;;;;;;4.01;72.26;99576.88;10540148;28;20388;-64
2020/12/24 22:09:50;;;;;;;12.18;11.27;;;;;;;4.03;72.29;99580.31;10538484;28;20074;-64
2020/12/24 22:14:52;;;;;;;11.90;10.90;;;;;;;4.00;72.28;99584.69;10538197;28;20044;-64
2020/12/24 22:19:53;;;;;;;11.30;10.40;;;;;;;4.02;72.40;99577.72;10538646;28;20040;-64
2020/12/24 22:24:54;;;;;;;11.95;10.95;;;;;;;3.90;72.84;99578.75;10538376;28;20055;-63
2020/12/24 22:29:57;;;;;;;11.70;10.80;;;;;;;3.89;72.97;99573.56;10538560;28;20152;-63
2020/12/24 22:35:11;;;;;;;12.95;11.85;;;;;;;3.68;73.22;99590.28;10538419;28;20106;-65
2020/12/24 22:40:12;;;;;;;13.10;12.07;;;;;;;3.59;74.07;99588.63;10544981;28;20451;-64
2020/12/24 22:45:14;;;;;;;12.57;11.55;;;;;;;3.64;74.26;99586.00;10546815;28;20064;-65
2020/12/24 22:50:17;;;;;;;12.25;11.35;;;;;;;3.74;74.80;99591.06;10546672;28;20119;-62
2020/12/24 22:55:18;;;;;;;12.57;11.68;;;;;;;3.70;74.27;99591.09;10545552;28;20072;-62
2020/12/24 23:00:27;;;;;;;12.07;11.02;;;;;;;3.54;74.28;99583.50;10545074;28;20105;-63
2020/12/24 23:05:31;;;;;;;12.13;11.10;;;;;;;3.68;74.25;99591.13;10545453;28;20052;-64
2020/12/24 23:10:32;;;;;;;11.98;11.07;;;;;;;3.59;74.52;99595.56;10544626;28;20044;-63
2020/12/24 23:15:34;;;;;;;11.85;10.95;;;;;;;3.61;74.41;99591.22;10544558;28;20048;-63
2020/12/24 23:20:35;;;;;;;13.07;11.98;;;;;;;3.62;74.45;99595.53;10525840;28;20501;-65
2020/12/24 23:25:36;;;;;;;14.05;13.05;;;;;;;3.49;74.89;99593.03;10544435;28;20044;-64
2020/12/24 23:30:38;;;;;;;12.85;11.95;;;;;;;3.53;75.00;99605.13;10544252;28;20089;-63
2020/12/24 23:35:49;;;;;;;12.95;11.95;;;;;;;3.52;75.07;99603.41;10543795;28;20062;-63